Camillus, NY

11:40 PM EDT on July 06, 2015 (GMT -0400)
Weatheridge | | Change Station
CLOSE
Current Station
Personal Weather Station
Location: Camillus, NY
Elevation: 702 ft
Nearby Weather Stations

Elev 702 ft 43.03 °N, 76.29 °W | Updated 4 minutes ago

Partly Cloudy
Partly Cloudy
70.5 °F
Feels Like 70.5 °F
N
0.0
Wind Variable Wind from SSW

Today
High -- | Low -- °F
--% Chance of Precip.
Yesterday
High -- | Low -- °F
Precip. -- in
5:32 AM 8:47 PM
Waning Gibbous, 69% visible
Pressure 29.99 in
Visibility 10.0 miles
Clouds Scattered Clouds 11000 ft
Dew Point 67 °F
Humidity 89%
Rainfall 0.00 in
Snow Depth Not available.
UV 0 out of 12
Pollen 5.20 out of 12
Air Quality Not available.
Flu Activity Not available.
METAR KSYR 070254Z 12005KT 10SM SCT110 23/20 A3001 RMK AO2 SLP154 SCT V BKN T02330200 58003

More Conditions Fewer Conditions

Pressure 29.99 in
Visibility 10.0 miles
Clouds Scattered Clouds 11000 ft
Dew Point 67 °F
Humidity 89%
Rainfall 0.00 in
Snow Depth Not available.
UV 0 out of 12
Pollen 5.20 out of 12
Air Quality Not available.
Flu Activity Not available.
METAR KSYR 070254Z 12005KT 10SM SCT110 23/20 A3001 RMK AO2 SLP154 SCT V BKN T02330200 58003

More Conditions Fewer Conditions

10-Day Weather Forecast

×

Almanac

Astronomy

Jul. 06, 2015 Rise Set
Actual Time
Civil Twilight
Nautical Twilight
Astronomical Twilight
Moon
Length of Visible Light
Length of Day
Tomorrow will be .
, % of the Moon is Illuminated

Today's Extremes

State Highs State Lows

Community

WunderPhotos

Upload Photos

1,835,712 photos uploaded!

WunderBlogs® & News

Nearby

Air Quality

  Air Quality AQ Index Pollutant
Not available.

Snow Depth

Station Depth Elevation

Earthquake Activity

City Distance Mag. Time & Date
Minimum magnitude displayed is 2.5.

Coastal Water Temperatures

Place Temperature

Stations

Nearby Weather Stations

Station Location Temp. Windchill Dew Point Humidity Wind Precip. Elev Updated Type